Time,TemperatureF,DewpointF,PressureIn,WindDirection,WindDirectionDegrees,WindSpeedMPH,WindSpeedGustMPH,Humidity,HourlyPrecipIn,Conditions,Clouds,dailyrainin,SoftwareType,DateUTC
2013-02-27 00:00:00,35.7,31.9,29.65,ESE,102,13.0,29.0,86,0.07,,---,0.00,VWS V13.01,2013-02-27 05:00:00,
2013-02-27 00:01:00,35.6,31.8,29.64,East,98,22.0,22.0,86,0.05,,---,0.00,VWS V13.01,2013-02-27 05:01:00,
2013-02-27 00:06:00,35.7,31.9,29.64,ESE,109,13.0,23.0,86,0.06,,---,0.01,VWS V13.01,2013-02-27 05:06:00,
2013-02-27 00:07:00,35.6,31.8,29.64,ESE,111,14.0,23.0,86,0.06,,---,0.01,VWS V13.01,2013-02-27 05:07:00,
2013-02-27 00:12:00,35.6,31.8,29.65,East,94,15.0,23.0,86,0.06,,---,0.01,VWS V13.01,2013-02-27 05:12:00,
2013-02-27 00:17:00,35.7,31.9,29.64,ESE,106,13.0,27.0,86,0.07,,---,0.02,VWS V13.01,2013-02-27 05:17:00,
2013-02-27 00:22:00,35.7,31.9,29.64,East,87,10.0,27.0,86,0.07,,---,0.02,VWS V13.01,2013-02-27 05:22:00,
2013-02-27 00:27:00,35.7,31.9,29.65,East,94,14.0,27.0,86,0.07,,---,0.02,VWS V13.01,2013-02-27 05:27:00,
2013-02-27 00:32:00,35.7,31.9,29.64,SE,125,19.0,20.0,86,0.04,,---,0.02,VWS V13.01,2013-02-27 05:32:00,
2013-02-27 00:37:00,35.7,31.9,29.64,ESE,117,7.0,20.0,86,0.05,,---,0.03,VWS V13.01,2013-02-27 05:37:00,
2013-02-27 00:42:00,35.8,32.0,29.64,ESE,105,19.0,22.0,86,0.05,,---,0.03,VWS V13.01,2013-02-27 05:42:00,
2013-02-27 00:47:00,35.7,31.9,29.64,ESE,114,13.0,23.0,86,0.05,,---,0.03,VWS V13.01,2013-02-27 05:47:00,
2013-02-27 00:52:00,35.7,31.9,29.64,East,96,12.0,23.0,86,0.06,,---,0.04,VWS V13.01,2013-02-27 05:52:00,
2013-02-27 00:57:00,35.7,31.9,29.64,East,84,8.0,23.0,86,0.06,,---,0.04,VWS V13.01,2013-02-27 05:57:00,
2013-02-27 01:02:00,35.5,32.0,29.64,ESE,111,8.0,18.0,87,0.04,,---,0.04,VWS V13.01,2013-02-27 06:02:00,
2013-02-27 01:07:00,35.5,32.0,29.64,East,88,12.0,21.0,87,0.04,,---,0.04,VWS V13.01,2013-02-27 06:07:00,
2013-02-27 01:12:00,35.5,32.0,29.63,ESE,115,11.0,21.0,87,0.05,,---,0.05,VWS V13.01,2013-02-27 06:12:00,
2013-02-27 01:18:00,35.6,32.1,29.63,ESE,107,18.0,21.0,87,0.05,,---,0.05,VWS V13.01,2013-02-27 06:18:00,
2013-02-27 01:23:00,35.7,31.9,29.63,ESE,102,9.0,21.0,86,0.05,,---,0.05,VWS V13.01,2013-02-27 06:23:00,
2013-02-27 01:28:00,35.7,31.9,29.63,ENE,78,7.0,21.0,86,0.05,,---,0.05,VWS V13.01,2013-02-27 06:28:00,
2013-02-27 01:33:00,35.7,31.9,29.63,East,92,9.0,14.0,86,0.03,,---,0.06,VWS V13.01,2013-02-27 06:33:00,
2013-02-27 01:38:00,35.8,32.3,29.63,East,82,9.0,15.0,87,0.04,,---,0.06,VWS V13.01,2013-02-27 06:38:00,
2013-02-27 01:43:00,35.9,32.1,29.62,ESE,109,6.0,21.0,86,0.04,,---,0.06,VWS V13.01,2013-02-27 06:43:00,
2013-02-27 01:48:00,35.8,32.0,29.63,ESE,102,6.0,21.0,86,0.04,,---,0.06,VWS V13.01,2013-02-27 06:48:00,
2013-02-27 01:53:00,35.8,32.0,29.63,East,99,8.0,21.0,86,0.04,,---,0.06,VWS V13.01,2013-02-27 06:53:00,
2013-02-27 01:58:00,35.7,32.2,29.62,East,98,5.0,21.0,87,0.04,,---,0.06,VWS V13.01,2013-02-27 06:58:00,
2013-02-27 02:03:00,35.7,32.2,29.63,East,99,14.0,14.0,87,0.02,,---,0.06,VWS V13.01,2013-02-27 07:03:00,
2013-02-27 02:08:00,35.6,32.1,29.62,East,87,9.0,14.0,87,0.02,,---,0.06,VWS V13.01,2013-02-27 07:08:00,
2013-02-27 02:13:00,35.7,32.2,29.62,ENE,77,8.0,15.0,87,0.02,,---,0.06,VWS V13.01,2013-02-27 07:13:00,
2013-02-27 02:18:00,35.7,32.2,29.62,East,90,8.0,16.0,87,0.03,,---,0.07,VWS V13.01,2013-02-27 07:18:00,
2013-02-27 02:23:00,35.7,32.2,29.61,ESE,103,10.0,16.0,87,0.03,,---,0.07,VWS V13.01,2013-02-27 07:23:00,
2013-02-27 02:28:00,35.7,32.2,29.61,ESE,110,12.0,16.0,87,0.03,,---,0.07,VWS V13.01,2013-02-27 07:28:00,
2013-02-27 02:34:00,35.7,32.2,29.61,ESE,103,9.0,19.0,87,0.02,,---,0.07,VWS V13.01,2013-02-27 07:34:00,
2013-02-27 02:39:00,35.6,32.1,29.60,East,92,7.0,19.0,87,0.02,,---,0.07,VWS V13.01,2013-02-27 07:39:00,
2013-02-27 02:44:00,35.6,32.1,29.60,ENE,75,7.0,19.0,87,0.02,,---,0.07,VWS V13.01,2013-02-27 07:44:00,
2013-02-27 02:49:00,35.6,32.1,29.60,ESE,114,5.0,19.0,87,0.03,,---,0.08,VWS V13.01,2013-02-27 07:49:00,
2013-02-27 02:54:00,35.6,32.1,29.59,East,97,7.0,19.0,87,0.03,,---,0.08,VWS V13.01,2013-02-27 07:54:00,
2013-02-27 02:59:00,35.7,32.2,29.59,East,83,6.0,19.0,87,0.03,,---,0.08,VWS V13.01,2013-02-27 07:59:00,
2013-02-27 03:04:00,35.7,32.5,29.59,ENE,78,8.0,18.0,88,0.02,,---,0.08,VWS V13.01,2013-02-27 08:04:00,
2013-02-27 03:09:00,35.6,32.4,29.59,ESE,107,8.0,18.0,88,0.02,,---,0.08,VWS V13.01,2013-02-27 08:09:00,
2013-02-27 03:14:00,35.6,32.4,29.58,ESE,102,6.0,18.0,88,0.02,,---,0.08,VWS V13.01,2013-02-27 08:14:00,
2013-02-27 03:19:00,35.6,32.4,29.58,ESE,102,7.0,18.0,88,0.02,,---,0.08,VWS V13.01,2013-02-27 08:19:00,
2013-02-27 03:24:00,35.5,32.3,29.58,ENE,65,7.0,18.0,88,0.02,,---,0.08,VWS V13.01,2013-02-27 08:24:00,
2013-02-27 03:30:00,35.5,32.3,29.58,East,92,4.0,20.0,88,0.02,,---,0.08,VWS V13.01,2013-02-27 08:30:00,
2013-02-27 03:35:00,35.5,32.3,29.58,SE,138,6.0,13.0,88,0.01,,---,0.08,VWS V13.01,2013-02-27 08:35:00,
2013-02-27 03:40:00,35.4,32.2,29.58,ESE,110,3.0,13.0,88,0.01,,---,0.08,VWS V13.01,2013-02-27 08:40:00,
2013-02-27 03:45:00,35.3,32.4,29.58,East,84,8.0,13.0,89,0.01,,---,0.08,VWS V13.01,2013-02-27 08:45:00,
2013-02-27 03:50:00,35.2,32.3,29.58,East,96,8.0,14.0,89,0.01,,---,0.08,VWS V13.01,2013-02-27 08:50:00,
2013-02-27 03:55:00,35.1,32.5,29.57,East,99,5.0,14.0,90,0.01,,---,0.08,VWS V13.01,2013-02-27 08:55:00,
2013-02-27 04:00:00,35.0,32.4,29.57,ENE,77,7.0,9.0,90,0.01,,---,0.08,VWS V13.01,2013-02-27 09:00:00,
2013-02-27 04:05:00,34.8,32.2,29.57,East,98,10.0,14.0,90,0.00,,---,0.08,VWS V13.01,2013-02-27 09:05:00,
2013-02-27 04:10:00,34.9,32.5,29.56,East,87,4.0,15.0,91,0.01,,---,0.09,VWS V13.01,2013-02-27 09:10:00,
2013-02-27 04:15:00,34.8,32.5,29.56,ENE,72,6.0,15.0,91,0.01,,---,0.09,VWS V13.01,2013-02-27 09:15:00,
2013-02-27 04:20:00,34.7,32.3,29.56,ESE,112,8.0,15.0,91,0.01,,---,0.09,VWS V13.01,2013-02-27 09:20:00,
2013-02-27 04:26:00,34.7,32.3,29.56,East,80,7.0,15.0,91,0.01,,---,0.09,VWS V13.01,2013-02-27 09:26:00,
2013-02-27 04:31:00,34.6,32.2,29.56,East,91,7.0,10.0,91,0.01,,---,0.09,VWS V13.01,2013-02-27 09:31:00,
2013-02-27 04:36:00,34.6,32.2,29.56,East,89,6.0,10.0,91,0.01,,---,0.09,VWS V13.01,2013-02-27 09:36:00,
2013-02-27 04:41:00,34.6,32.2,29.56,ESE,111,5.0,11.0,91,0.01,,---,0.09,VWS V13.01,2013-02-27 09:41:00,
2013-02-27 04:46:00,34.6,32.2,29.56,ENE,73,6.0,11.0,91,0.01,,---,0.09,VWS V13.01,2013-02-27 09:46:00,
2013-02-27 04:51:00,34.4,32.0,29.55,East,96,8.0,11.0,91,0.02,,---,0.10,VWS V13.01,2013-02-27 09:51:00,
2013-02-27 04:56:00,34.3,32.2,29.56,East,96,5.0,11.0,92,0.02,,---,0.10,VWS V13.01,2013-02-27 09:56:00,
2013-02-27 05:01:00,34.1,32.0,29.56,East,83,7.0,8.0,92,0.02,,---,0.10,VWS V13.01,2013-02-27 10:01:00,
2013-02-27 05:06:00,34.2,32.1,29.56,East,90,6.0,10.0,92,0.02,,---,0.10,VWS V13.01,2013-02-27 10:06:00,
2013-02-27 05:11:00,34.2,32.1,29.55,ENE,75,7.0,10.0,92,0.02,,---,0.10,VWS V13.01,2013-02-27 10:11:00,
2013-02-27 05:16:00,34.1,32.0,29.55,East,86,5.0,10.0,92,0.02,,---,0.10,VWS V13.01,2013-02-27 10:16:00,
2013-02-27 05:21:00,34.1,32.0,29.55,ESE,103,0.0,10.0,92,0.02,,---,0.10,VWS V13.01,2013-02-27 10:21:00,
2013-02-27 05:27:00,34.1,32.0,29.55,East,87,4.0,10.0,92,0.03,,---,0.11,VWS V13.01,2013-02-27 10:27:00,
2013-02-27 05:32:00,34.1,32.0,29.55,East,91,4.0,7.0,92,0.02,,---,0.11,VWS V13.01,2013-02-27 10:32:00,
2013-02-27 05:37:00,34.2,32.1,29.55,East,89,0.0,7.0,92,0.02,,---,0.11,VWS V13.01,2013-02-27 10:37:00,
2013-02-27 05:42:00,34.2,32.1,29.55,ENE,75,3.0,7.0,92,0.02,,---,0.11,VWS V13.01,2013-02-27 10:42:00,
2013-02-27 05:47:00,34.2,32.1,29.55,ENE,78,3.0,7.0,92,0.02,,---,0.11,VWS V13.01,2013-02-27 10:47:00,
2013-02-27 05:52:00,34.0,31.9,29.55,ENE,78,0.0,7.0,92,0.02,,---,0.11,VWS V13.01,2013-02-27 10:52:00,
2013-02-27 05:58:00,33.8,31.7,29.55,ENE,78,0.0,7.0,92,0.02,,---,0.11,VWS V13.01,2013-02-27 10:58:00,
2013-02-27 06:03:00,33.5,31.4,29.55,ENE,78,0.0,0.0,92,0.02,,---,0.12,VWS V13.01,2013-02-27 11:03:00,
2013-02-27 06:08:00,33.3,31.5,29.55,ENE,78,0.0,0.0,93,0.02,,---,0.12,VWS V13.01,2013-02-27 11:08:00,
2013-02-27 06:13:00,33.0,31.2,29.55,ENE,78,0.0,0.0,93,0.02,,---,0.12,VWS V13.01,2013-02-27 11:13:00,
2013-02-27 06:18:00,32.8,31.0,29.54,ENE,78,0.0,0.0,93,0.02,,---,0.12,VWS V13.01,2013-02-27 11:18:00,
2013-02-27 06:23:00,32.6,30.8,29.55,ENE,78,0.0,0.0,93,0.02,,---,0.12,VWS V13.01,2013-02-27 11:23:00,
2013-02-27 06:28:00,32.4,30.6,29.54,ENE,78,0.0,0.0,93,0.02,,---,0.12,VWS V13.01,2013-02-27 11:28:00,
2013-02-27 06:33:00,32.2,30.7,29.54,ENE,78,0.0,0.0,94,0.01,,---,0.12,VWS V13.01,2013-02-27 11:33:00,
2013-02-27 06:38:00,32.1,30.6,29.54,ENE,78,0.0,0.0,94,0.01,,---,0.12,VWS V13.01,2013-02-27 11:38:00,
2013-02-27 06:43:00,32.0,30.5,29.54,ENE,78,0.0,0.0,94,0.02,,---,0.13,VWS V13.01,2013-02-27 11:43:00,
2013-02-27 06:48:00,31.9,30.4,29.54,ENE,78,0.0,0.0,94,0.02,,---,0.13,VWS V13.01,2013-02-27 11:48:00,
2013-02-27 06:53:00,31.8,30.3,29.54,ENE,78,0.0,0.0,94,0.02,,---,0.13,VWS V13.01,2013-02-27 11:53:00,
2013-02-27 06:58:00,31.7,30.2,29.54,ENE,78,0.0,0.0,94,0.02,,---,0.13,VWS V13.01,2013-02-27 11:58:00,
2013-02-27 07:04:00,31.7,30.2,29.55,ENE,78,0.0,0.0,94,0.02,,---,0.13,VWS V13.01,2013-02-27 12:04:00,
2013-02-27 07:09:00,31.6,30.3,29.55,ENE,78,0.0,0.0,95,0.02,,---,0.13,VWS V13.01,2013-02-27 12:09:00,
2013-02-27 07:14:00,31.6,30.3,29.55,ENE,78,0.0,0.0,95,0.02,,---,0.13,VWS V13.01,2013-02-27 12:14:00,
2013-02-27 07:19:00,31.6,30.3,29.55,ENE,78,0.0,0.0,95,0.02,,---,0.13,VWS V13.01,2013-02-27 12:19:00,
2013-02-27 07:24:00,31.6,30.3,29.55,ENE,78,0.0,0.0,95,0.02,,---,0.13,VWS V13.01,2013-02-27 12:24:00,
2013-02-27 07:29:00,31.5,30.2,29.55,ENE,78,0.0,0.0,95,0.02,,---,0.13,VWS V13.01,2013-02-27 12:29:00,
2013-02-27 07:34:00,31.5,30.2,29.55,ENE,78,0.0,0.0,95,0.01,,---,0.13,VWS V13.01,2013-02-27 12:34:00,
2013-02-27 07:39:00,31.5,30.2,29.55,ENE,78,0.0,0.0,95,0.01,,---,0.13,VWS V13.01,2013-02-27 12:39:00,
2013-02-27 07:44:00,31.5,30.2,29.55,ENE,78,0.0,0.0,95,0.01,,---,0.13,VWS V13.01,2013-02-27 12:44:00,
2013-02-27 07:49:00,31.5,30.2,29.55,ENE,78,0.0,0.0,95,0.01,,---,0.13,VWS V13.01,2013-02-27 12:49:00,
2013-02-27 07:54:00,31.5,30.2,29.55,ENE,78,0.0,0.0,95,0.01,,---,0.13,VWS V13.01,2013-02-27 12:54:00,
2013-02-27 07:59:00,31.5,30.2,29.55,ENE,78,0.0,0.0,95,0.01,,---,0.13,VWS V13.01,2013-02-27 12:59:00,
2013-02-27 08:05:00,31.5,30.2,29.55,ENE,78,0.0,0.0,95,0.00,,---,0.13,VWS V13.01,2013-02-27 13:05:00,
2013-02-27 08:10:00,31.5,30.2,29.55,ENE,78,0.0,0.0,95,0.00,,---,0.13,VWS V13.01,2013-02-27 13:10:00,
2013-02-27 08:15:00,31.5,30.2,29.55,ENE,78,0.0,0.0,95,0.00,,---,0.13,VWS V13.01,2013-02-27 13:15:00,
2013-02-27 08:20:00,31.6,30.3,29.56,ENE,78,0.0,0.0,95,0.00,,---,0.13,VWS V13.01,2013-02-27 13:20:00,
2013-02-27 08:25:00,31.6,30.3,29.56,ENE,78,0.0,0.0,95,0.00,,---,0.13,VWS V13.01,2013-02-27 13:25:00,
2013-02-27 08:30:00,31.6,30.3,29.56,ENE,78,0.0,0.0,95,0.00,,---,0.13,VWS V13.01,2013-02-27 13:30:00,
2013-02-27 08:35:00,31.7,30.4,29.55,ENE,78,0.0,0.0,95,0.00,,---,0.13,VWS V13.01,2013-02-27 13:35:00,
2013-02-27 08:40:00,31.7,30.4,29.56,ENE,78,0.0,0.0,95,0.00,,---,0.13,VWS V13.01,2013-02-27 13:40:00,
2013-02-27 08:45:00,31.7,30.7,29.56,ENE,78,0.0,0.0,96,0.00,,---,0.13,VWS V13.01,2013-02-27 13:45:00,
2013-02-27 08:50:00,31.7,30.7,29.56,ENE,78,0.0,0.0,96,0.00,,---,0.13,VWS V13.01,2013-02-27 13:50:00,
2013-02-27 08:55:00,31.8,30.8,29.56,ENE,78,0.0,0.0,96,0.00,,---,0.13,VWS V13.01,2013-02-27 13:55:00,
2013-02-27 09:00:00,31.9,30.9,29.56,ENE,78,0.0,0.0,96,0.00,,---,0.13,VWS V13.01,2013-02-27 14:00:00,
2013-02-27 09:06:00,32.0,31.0,29.56,ENE,78,0.0,0.0,96,0.00,,---,0.13,VWS V13.01,2013-02-27 14:06:00,
2013-02-27 09:11:00,32.0,31.0,29.56,ENE,78,0.0,0.0,96,0.01,,---,0.14,VWS V13.01,2013-02-27 14:11:00,
2013-02-27 09:16:00,31.9,30.9,29.56,ENE,78,0.0,0.0,96,0.01,,---,0.14,VWS V13.01,2013-02-27 14:16:00,
2013-02-27 09:21:00,31.9,30.9,29.56,ENE,78,0.0,0.0,96,0.01,,---,0.14,VWS V13.01,2013-02-27 14:21:00,
2013-02-27 09:26:00,31.9,30.9,29.55,ENE,78,0.0,0.0,96,0.02,,---,0.15,VWS V13.01,2013-02-27 14:26:00,
2013-02-27 09:31:00,32.1,31.1,29.56,ENE,78,0.0,0.0,96,0.02,,---,0.15,VWS V13.01,2013-02-27 14:31:00,
2013-02-27 09:36:00,32.3,31.3,29.56,ENE,78,0.0,0.0,96,0.03,,---,0.16,VWS V13.01,2013-02-27 14:36:00,
2013-02-27 09:41:00,32.3,31.3,29.56,ENE,78,0.0,0.0,96,0.03,,---,0.16,VWS V13.01,2013-02-27 14:41:00,
2013-02-27 09:47:00,32.5,31.5,29.56,ENE,78,0.0,0.0,96,0.03,,---,0.16,VWS V13.01,2013-02-27 14:47:00,
2013-02-27 09:52:00,32.5,31.5,29.56,ENE,78,0.0,0.0,96,0.04,,---,0.17,VWS V13.01,2013-02-27 14:52:00,
2013-02-27 09:57:00,32.5,31.5,29.55,ENE,78,0.0,0.0,96,0.04,,---,0.17,VWS V13.01,2013-02-27 14:57:00,
2013-02-27 10:02:00,32.5,31.5,29.55,ENE,78,0.0,0.0,96,0.05,,---,0.18,VWS V13.01,2013-02-27 15:02:00,
2013-02-27 10:07:00,32.6,31.6,29.56,ENE,78,0.0,0.0,96,0.05,,---,0.18,VWS V13.01,2013-02-27 15:07:00,
2013-02-27 10:12:00,32.9,31.9,29.56,ENE,78,0.0,0.0,96,0.06,,---,0.19,VWS V13.01,2013-02-27 15:12:00,
2013-02-27 10:17:00,33.0,32.0,29.56,ENE,78,0.0,0.0,96,0.07,,---,0.20,VWS V13.01,2013-02-27 15:17:00,
2013-02-27 10:23:00,33.1,32.1,29.56,ENE,78,0.0,0.0,96,0.07,,---,0.20,VWS V13.01,2013-02-27 15:23:00,
2013-02-27 10:28:00,33.1,32.1,29.56,ENE,78,0.0,0.0,96,0.08,,---,0.21,VWS V13.01,2013-02-27 15:28:00,
2013-02-27 10:33:00,32.9,31.9,29.56,ENE,78,0.0,0.0,96,0.06,,---,0.22,VWS V13.01,2013-02-27 15:33:00,
2013-02-27 10:38:00,32.6,31.6,29.56,ENE,78,0.0,1.0,96,0.07,,---,0.22,VWS V13.01,2013-02-27 15:38:00,
2013-02-27 10:43:00,32.5,31.5,29.56,ENE,78,0.0,1.0,96,0.08,,---,0.23,VWS V13.01,2013-02-27 15:43:00,
2013-02-27 10:48:00,32.6,31.6,29.56,ENE,78,0.0,1.0,96,0.09,,---,0.24,VWS V13.01,2013-02-27 15:48:00,
2013-02-27 10:53:00,32.6,31.6,29.56,ENE,78,0.0,1.0,96,0.10,,---,0.25,VWS V13.01,2013-02-27 15:53:00,
2013-02-27 10:58:00,32.4,31.4,29.56,ENE,78,0.0,1.0,96,0.10,,---,0.25,VWS V13.01,2013-02-27 15:58:00,
2013-02-27 11:03:00,32.5,31.5,29.57,ENE,78,0.0,0.0,96,0.08,,---,0.26,VWS V13.01,2013-02-27 16:03:00,
2013-02-27 11:08:00,32.6,31.6,29.57,ENE,78,0.0,1.0,96,0.08,,---,0.26,VWS V13.01,2013-02-27 16:08:00,
2013-02-27 11:13:00,32.7,31.7,29.57,ENE,78,0.0,1.0,96,0.08,,---,0.26,VWS V13.01,2013-02-27 16:13:00,
2013-02-27 11:18:00,32.9,31.9,29.57,ENE,78,0.0,1.0,96,0.09,,---,0.27,VWS V13.01,2013-02-27 16:18:00,
2013-02-27 11:23:00,33.2,32.2,29.57,ENE,78,0.0,1.0,96,0.09,,---,0.27,VWS V13.01,2013-02-27 16:23:00,
2013-02-27 11:29:00,33.4,32.4,29.57,ENE,78,0.0,1.0,96,0.09,,---,0.27,VWS V13.01,2013-02-27 16:29:00,
2013-02-27 11:34:00,33.5,32.5,29.57,ENE,78,0.0,0.0,96,0.07,,---,0.28,VWS V13.01,2013-02-27 16:34:00,
2013-02-27 11:39:00,33.5,32.5,29.57,ENE,78,0.0,0.0,96,0.07,,---,0.28,VWS V13.01,2013-02-27 16:39:00,
2013-02-27 11:44:00,33.6,32.6,29.57,ENE,78,0.0,0.0,96,0.07,,---,0.28,VWS V13.01,2013-02-27 16:44:00,
2013-02-27 11:49:00,33.7,32.7,29.57,ENE,78,0.0,0.0,96,0.07,,---,0.28,VWS V13.01,2013-02-27 16:49:00,
2013-02-27 11:54:00,33.7,32.7,29.57,ENE,78,0.0,0.0,96,0.07,,---,0.28,VWS V13.01,2013-02-27 16:54:00,
2013-02-27 11:59:00,33.9,32.9,29.57,ENE,78,0.0,0.0,96,0.07,,---,0.28,VWS V13.01,2013-02-27 16:59:00,
2013-02-27 12:04:00,34.1,33.1,29.57,ENE,78,0.0,0.0,96,0.02,,---,0.28,VWS V13.01,2013-02-27 17:04:00,
2013-02-27 12:09:00,34.4,33.4,29.57,West,275,0.0,8.0,96,0.02,,---,0.28,VWS V13.01,2013-02-27 17:09:00,
2013-02-27 12:14:00,34.5,33.5,29.57,West,276,0.0,8.0,96,0.02,,---,0.28,VWS V13.01,2013-02-27 17:14:00,
2013-02-27 12:19:00,34.7,33.7,29.57,West,279,2.0,8.0,96,0.02,,---,0.28,VWS V13.01,2013-02-27 17:19:00,
2013-02-27 12:24:00,34.7,33.7,29.57,WNW,286,4.0,8.0,96,0.02,,---,0.28,VWS V13.01,2013-02-27 17:24:00,
2013-02-27 12:29:00,34.7,33.4,29.57,West,263,3.0,9.0,95,0.02,,---,0.28,VWS V13.01,2013-02-27 17:29:00,
2013-02-27 12:34:00,34.7,33.4,29.57,West,263,2.0,2.0,95,0.00,,---,0.28,VWS V13.01,2013-02-27 17:34:00,
2013-02-27 12:39:00,34.8,33.5,29.57,West,269,5.0,7.0,95,0.00,,---,0.28,VWS V13.01,2013-02-27 17:39:00,
2013-02-27 12:45:00,34.8,33.5,29.57,West,270,2.0,7.0,95,0.00,,---,0.28,VWS V13.01,2013-02-27 17:45:00,
2013-02-27 12:50:00,34.7,33.4,29.57,West,277,0.0,7.0,95,0.00,,---,0.28,VWS V13.01,2013-02-27 17:50:00,
2013-02-27 12:55:00,34.8,33.5,29.57,West,276,0.0,7.0,95,0.00,,---,0.28,VWS V13.01,2013-02-27 17:55:00,
2013-02-27 13:00:00,35.0,33.7,29.57,West,277,1.0,7.0,95,0.00,,---,0.28,VWS V13.01,2013-02-27 18:00:00,
2013-02-27 13:05:00,35.0,33.7,29.57,West,277,0.0,6.0,95,0.00,,---,0.28,VWS V13.01,2013-02-27 18:05:00,
2013-02-27 13:10:00,35.0,33.7,29.57,West,267,7.0,7.0,95,0.01,,---,0.29,VWS V13.01,2013-02-27 18:10:00,
2013-02-27 13:15:00,35.1,33.8,29.57,West,266,5.0,7.0,95,0.01,,---,0.29,VWS V13.01,2013-02-27 18:15:00,
2013-02-27 13:20:00,35.0,33.7,29.57,West,266,2.0,7.0,95,0.01,,---,0.29,VWS V13.01,2013-02-27 18:20:00,
2013-02-27 13:25:00,35.0,33.7,29.57,West,266,0.0,7.0,95,0.01,,---,0.29,VWS V13.01,2013-02-27 18:25:00,
2013-02-27 13:30:00,34.9,33.6,29.57,West,266,4.0,4.0,95,0.02,,---,0.30,VWS V13.01,2013-02-27 18:30:00,
2013-02-27 13:35:00,35.0,33.7,29.57,West,266,0.0,4.0,95,0.02,,---,0.30,VWS V13.01,2013-02-27 18:35:00,
2013-02-27 13:41:00,35.0,33.7,29.57,West,266,0.0,4.0,95,0.02,,---,0.30,VWS V13.01,2013-02-27 18:41:00,
2013-02-27 13:46:00,35.0,33.7,29.56,West,266,0.0,4.0,95,0.02,,---,0.30,VWS V13.01,2013-02-27 18:46:00,
2013-02-27 13:51:00,35.1,33.8,29.56,West,266,0.0,4.0,95,0.02,,---,0.30,VWS V13.01,2013-02-27 18:51:00,
2013-02-27 13:56:00,35.1,33.8,29.56,West,266,0.0,4.0,95,0.02,,---,0.30,VWS V13.01,2013-02-27 18:56:00,
2013-02-27 14:01:00,35.1,33.8,29.56,West,265,0.0,0.0,95,0.02,,---,0.30,VWS V13.01,2013-02-27 19:01:00,
2013-02-27 14:06:00,35.2,33.9,29.56,West,266,0.0,2.0,95,0.02,,---,0.30,VWS V13.01,2013-02-27 19:06:00,
2013-02-27 14:11:00,35.5,34.5,29.56,West,264,5.0,8.0,96,0.02,,---,0.30,VWS V13.01,2013-02-27 19:11:00,
2013-02-27 14:16:00,35.9,34.9,29.56,West,265,2.0,9.0,96,0.02,,---,0.30,VWS V13.01,2013-02-27 19:16:00,
2013-02-27 14:21:00,35.8,34.5,29.57,West,265,2.0,9.0,95,0.02,,---,0.30,VWS V13.01,2013-02-27 19:21:00,
2013-02-27 14:26:00,35.8,34.5,29.57,West,271,5.0,10.0,95,0.02,,---,0.30,VWS V13.01,2013-02-27 19:26:00,
2013-02-27 14:31:00,35.7,34.4,29.57,West,271,5.0,6.0,95,0.00,,---,0.30,VWS V13.01,2013-02-27 19:31:00,
2013-02-27 14:36:00,35.9,34.6,29.57,West,265,10.0,11.0,95,0.00,,---,0.30,VWS V13.01,2013-02-27 19:36:00,
2013-02-27 14:41:00,36.2,34.9,29.57,West,269,7.0,11.0,95,0.00,,---,0.30,VWS V13.01,2013-02-27 19:41:00,
2013-02-27 14:46:00,36.2,34.9,29.57,WSW,252,12.0,12.0,95,0.00,,---,0.30,VWS V13.01,2013-02-27 19:46:00,
2013-02-27 14:52:00,36.2,34.9,29.57,West,271,7.0,12.0,95,0.00,,---,0.30,VWS V13.01,2013-02-27 19:52:00,
2013-02-27 14:57:00,36.1,34.8,29.57,West,271,4.0,12.0,95,0.00,,---,0.30,VWS V13.01,2013-02-27 19:57:00,
2013-02-27 15:02:00,35.9,34.6,29.56,West,271,4.0,4.0,95,0.00,,---,0.30,VWS V13.01,2013-02-27 20:02:00,
2013-02-27 15:07:00,35.7,34.4,29.57,West,271,1.0,4.0,95,0.00,,---,0.30,VWS V13.01,2013-02-27 20:07:00,
2013-02-27 15:12:00,35.6,34.3,29.57,West,271,1.0,4.0,95,0.00,,---,0.30,VWS V13.01,2013-02-27 20:12:00,
2013-02-27 15:17:00,35.5,34.2,29.57,West,271,2.0,4.0,95,0.00,,---,0.30,VWS V13.01,2013-02-27 20:17:00,
2013-02-27 15:22:00,35.5,34.2,29.56,West,271,1.0,4.0,95,0.00,,---,0.30,VWS V13.01,2013-02-27 20:22:00,
2013-02-27 15:27:00,35.6,34.3,29.57,West,271,1.0,5.0,95,0.00,,---,0.30,VWS V13.01,2013-02-27 20:27:00,
2013-02-27 15:32:00,35.5,34.2,29.57,West,271,1.0,2.0,95,0.00,,---,0.30,VWS V13.01,2013-02-27 20:32:00,
2013-02-27 15:37:00,35.4,34.1,29.57,West,271,1.0,2.0,95,0.00,,---,0.30,VWS V13.01,2013-02-27 20:37:00,
2013-02-27 15:42:00,35.3,34.0,29.57,West,271,0.0,2.0,95,0.00,,---,0.30,VWS V13.01,2013-02-27 20:42:00,
2013-02-27 15:47:00,35.2,33.9,29.57,West,271,0.0,2.0,95,0.00,,---,0.30,VWS V13.01,2013-02-27 20:47:00,
2013-02-27 15:52:00,35.0,33.7,29.57,West,271,0.0,2.0,95,0.00,,---,0.30,VWS V13.01,2013-02-27 20:52:00,
2013-02-27 15:57:00,34.9,33.6,29.57,West,271,0.0,2.0,95,0.00,,---,0.30,VWS V13.01,2013-02-27 20:57:00,
2013-02-27 16:03:00,34.8,33.8,29.57,West,271,0.0,0.0,96,0.00,,---,0.30,VWS V13.01,2013-02-27 21:03:00,
2013-02-27 16:08:00,34.5,33.2,29.57,West,271,0.0,0.0,95,0.00,,---,0.30,VWS V13.01,2013-02-27 21:08:00,
2013-02-27 16:13:00,34.4,33.1,29.57,West,271,0.0,0.0,95,0.00,,---,0.30,VWS V13.01,2013-02-27 21:13:00,
2013-02-27 16:18:00,34.4,33.1,29.57,West,271,0.0,0.0,95,0.00,,---,0.30,VWS V13.01,2013-02-27 21:18:00,
2013-02-27 16:23:00,34.4,33.4,29.57,West,271,0.0,0.0,96,0.00,,---,0.30,VWS V13.01,2013-02-27 21:23:00,
2013-02-27 16:28:00,34.2,32.9,29.57,West,271,0.0,0.0,95,0.00,,---,0.30,VWS V13.01,2013-02-27 21:28:00,
2013-02-27 16:33:00,34.1,33.1,29.57,West,271,0.0,0.0,96,0.00,,---,0.30,VWS V13.01,2013-02-27 21:33:00,
2013-02-27 16:38:00,33.9,32.9,29.58,West,271,0.0,0.0,96,0.00,,---,0.30,VWS V13.01,2013-02-27 21:38:00,
2013-02-27 16:43:00,34.4,33.4,29.58,West,272,0.0,8.0,96,0.00,,---,0.30,VWS V13.01,2013-02-27 21:43:00,
2013-02-27 16:48:00,34.7,33.7,29.58,West,272,2.0,8.0,96,0.00,,---,0.30,VWS V13.01,2013-02-27 21:48:00,
2013-02-27 16:54:00,35.2,34.2,29.58,West,271,5.0,12.0,96,0.00,,---,0.30,VWS V13.01,2013-02-27 21:54:00,
2013-02-27 16:59:00,35.6,34.6,29.58,West,273,5.0,16.0,96,0.00,,---,0.30,VWS V13.01,2013-02-27 21:59:00,
2013-02-27 17:04:00,35.8,34.8,29.58,West,275,1.0,6.0,96,0.00,,---,0.30,VWS V13.01,2013-02-27 22:04:00,
2013-02-27 17:09:00,35.8,34.8,29.58,West,275,2.0,6.0,96,0.00,,---,0.30,VWS V13.01,2013-02-27 22:09:00,
2013-02-27 17:14:00,35.7,34.7,29.59,West,275,0.0,6.0,96,0.00,,---,0.30,VWS V13.01,2013-02-27 22:14:00,
2013-02-27 17:19:00,35.7,34.7,29.58,West,275,0.0,6.0,96,0.00,,---,0.30,VWS V13.01,2013-02-27 22:19:00,
2013-02-27 17:24:00,35.8,34.8,29.59,West,275,1.0,6.0,96,0.00,,---,0.30,VWS V13.01,2013-02-27 22:24:00,
2013-02-27 17:29:00,35.7,34.4,29.59,West,275,5.0,6.0,95,0.00,,---,0.30,VWS V13.01,2013-02-27 22:29:00,
2013-02-27 17:34:00,35.8,34.8,29.59,West,275,2.0,5.0,96,0.00,,---,0.30,VWS V13.01,2013-02-27 22:34:00,
2013-02-27 17:39:00,35.7,34.4,29.59,West,275,0.0,5.0,95,0.00,,---,0.30,VWS V13.01,2013-02-27 22:39:00,
2013-02-27 17:44:00,35.4,34.1,29.59,West,275,0.0,5.0,95,0.00,,---,0.30,VWS V13.01,2013-02-27 22:44:00,
2013-02-27 17:49:00,35.3,34.0,29.59,West,275,0.0,5.0,95,0.00,,---,0.30,VWS V13.01,2013-02-27 22:49:00,
2013-02-27 17:55:00,35.2,33.9,29.59,West,275,0.0,5.0,95,0.00,,---,0.30,VWS V13.01,2013-02-27 22:55:00,
2013-02-27 18:00:00,35.1,33.8,29.59,West,275,0.0,5.0,95,0.00,,---,0.30,VWS V13.01,2013-02-27 23:00:00,
2013-02-27 18:05:00,34.9,33.6,29.59,West,275,0.0,0.0,95,0.00,,---,0.30,VWS V13.01,2013-02-27 23:05:00,
2013-02-27 18:10:00,34.7,33.4,29.59,West,275,0.0,0.0,95,0.00,,---,0.30,VWS V13.01,2013-02-27 23:10:00,
2013-02-27 18:15:00,34.4,33.1,29.59,West,275,0.0,0.0,95,0.00,,---,0.30,VWS V13.01,2013-02-27 23:15:00,
2013-02-27 18:20:00,34.4,33.1,29.59,West,275,0.0,0.0,95,0.00,,---,0.30,VWS V13.01,2013-02-27 23:20:00,
2013-02-27 18:25:00,34.4,33.1,29.59,West,275,0.0,1.0,95,0.00,,---,0.30,VWS V13.01,2013-02-27 23:25:00,
2013-02-27 18:30:00,34.2,32.9,29.60,West,275,0.0,0.0,95,0.00,,---,0.30,VWS V13.01,2013-02-27 23:30:00,
2013-02-27 18:36:00,34.1,33.1,29.60,West,275,0.0,1.0,96,0.00,,---,0.30,VWS V13.01,2013-02-27 23:36:00,
2013-02-27 18:41:00,34.2,33.2,29.60,West,275,0.0,1.0,96,0.00,,---,0.30,VWS V13.01,2013-02-27 23:41:00,
2013-02-27 18:46:00,34.0,33.0,29.60,West,275,0.0,1.0,96,0.00,,---,0.30,VWS V13.01,2013-02-27 23:46:00,
2013-02-27 18:51:00,33.9,32.9,29.60,West,275,0.0,1.0,96,0.00,,---,0.30,VWS V13.01,2013-02-27 23:51:00,
2013-02-27 18:56:00,33.7,32.7,29.60,West,275,0.0,1.0,96,0.00,,---,0.30,VWS V13.01,2013-02-27 23:56:00,
2013-02-27 19:01:00,33.5,32.5,29.60,West,275,0.0,0.0,96,0.00,,---,0.30,VWS V13.01,2013-02-28 00:01:00,
2013-02-27 19:06:00,33.5,32.5,29.60,West,275,0.0,1.0,96,0.00,,---,0.30,VWS V13.01,2013-02-28 00:06:00,
2013-02-27 19:11:00,33.5,32.5,29.60,West,275,0.0,1.0,96,0.00,,---,0.30,VWS V13.01,2013-02-28 00:11:00,
2013-02-27 19:16:00,33.4,32.4,29.61,West,275,0.0,1.0,96,0.00,,---,0.30,VWS V13.01,2013-02-28 00:16:00,
2013-02-27 19:21:00,33.5,32.5,29.60,West,275,0.0,1.0,96,0.00,,---,0.30,VWS V13.01,2013-02-28 00:21:00,
2013-02-27 19:26:00,33.5,32.5,29.60,West,275,0.0,1.0,96,0.00,,---,0.30,VWS V13.01,2013-02-28 00:26:00,
2013-02-27 19:32:00,33.6,32.6,29.60,West,275,0.0,0.0,96,0.00,,---,0.30,VWS V13.01,2013-02-28 00:32:00,
2013-02-27 19:37:00,33.8,32.8,29.61,West,275,0.0,0.0,96,0.00,,---,0.30,VWS V13.01,2013-02-28 00:37:00,
2013-02-27 19:42:00,33.8,32.8,29.60,West,275,0.0,0.0,96,0.00,,---,0.30,VWS V13.01,2013-02-28 00:42:00,
2013-02-27 19:47:00,33.6,32.6,29.61,West,275,0.0,0.0,96,0.00,,---,0.30,VWS V13.01,2013-02-28 00:47:00,
2013-02-27 19:52:00,33.5,32.5,29.61,West,275,0.0,0.0,96,0.00,,---,0.30,VWS V13.01,2013-02-28 00:52:00,
2013-02-27 19:57:00,33.7,32.7,29.60,West,275,0.0,0.0,96,0.00,,---,0.30,VWS V13.01,2013-02-28 00:57:00,
2013-02-27 20:02:00,33.8,32.8,29.60,West,275,0.0,1.0,96,0.01,,---,0.31,VWS V13.01,2013-02-28 01:02:00,
2013-02-27 20:07:00,33.9,32.9,29.61,West,275,0.0,1.0,96,0.01,,---,0.31,VWS V13.01,2013-02-28 01:07:00,
2013-02-27 20:12:00,34.0,33.0,29.60,West,275,1.0,6.0,96,0.01,,---,0.31,VWS V13.01,2013-02-28 01:12:00,
2013-02-27 20:17:00,34.4,33.6,29.61,West,269,8.0,11.0,97,0.02,,---,0.32,VWS V13.01,2013-02-28 01:17:00,
2013-02-27 20:22:00,34.5,33.5,29.60,West,276,6.0,12.0,96,0.02,,---,0.32,VWS V13.01,2013-02-28 01:22:00,
2013-02-27 20:27:00,34.6,33.6,29.60,West,273,5.0,12.0,96,0.02,,---,0.32,VWS V13.01,2013-02-28 01:27:00,
2013-02-27 20:33:00,34.5,33.2,29.60,West,275,6.0,11.0,95,0.02,,---,0.32,VWS V13.01,2013-02-28 01:33:00,
2013-02-27 20:38:00,34.7,33.4,29.60,West,267,8.0,12.0,95,0.02,,---,0.32,VWS V13.01,2013-02-28 01:38:00,
2013-02-27 20:43:00,34.6,33.0,29.60,West,268,6.0,12.0,94,0.02,,---,0.32,VWS V13.01,2013-02-28 01:43:00,
2013-02-27 20:48:00,34.6,33.0,29.60,West,271,6.0,12.0,94,0.02,,---,0.32,VWS V13.01,2013-02-28 01:48:00,
2013-02-27 20:53:00,34.4,32.6,29.60,West,280,12.0,12.0,93,0.02,,---,0.32,VWS V13.01,2013-02-28 01:53:00,
2013-02-27 20:58:00,34.4,32.6,29.60,West,273,6.0,13.0,93,0.02,,---,0.32,VWS V13.01,2013-02-28 01:58:00,
2013-02-27 21:03:00,34.4,32.6,29.59,WNW,282,6.0,15.0,93,0.01,,---,0.32,VWS V13.01,2013-02-28 02:03:00,
2013-02-27 21:08:00,34.4,32.6,29.59,West,281,7.0,15.0,93,0.01,,---,0.32,VWS V13.01,2013-02-28 02:08:00,
2013-02-27 21:13:00,34.4,32.6,29.59,West,278,8.0,15.0,93,0.01,,---,0.32,VWS V13.01,2013-02-28 02:13:00,
2013-02-27 21:18:00,34.3,32.5,29.59,West,269,8.0,15.0,93,0.01,,---,0.32,VWS V13.01,2013-02-28 02:18:00,
2013-02-27 21:23:00,34.1,32.3,29.59,West,273,7.0,15.0,93,0.01,,---,0.32,VWS V13.01,2013-02-28 02:23:00,
2013-02-27 21:29:00,34.0,32.2,29.60,West,264,11.0,15.0,93,0.01,,---,0.32,VWS V13.01,2013-02-28 02:29:00,
2013-02-27 21:34:00,34.0,32.2,29.60,West,265,9.0,14.0,93,0.01,,---,0.33,VWS V13.01,2013-02-28 02:34:00,
2013-02-27 21:39:00,33.9,32.1,29.59,West,273,11.0,14.0,93,0.01,,---,0.33,VWS V13.01,2013-02-28 02:39:00,
2013-02-27 21:44:00,33.8,33.5,29.59,WSW,253,9.0,14.0,99,0.01,,---,0.33,VWS V13.01,2013-02-28 02:44:00,
2013-02-27 21:49:00,33.7,31.9,29.59,West,263,8.0,14.0,93,0.01,,---,0.33,VWS V13.01,2013-02-28 02:49:00,
2013-02-27 21:54:00,33.7,31.9,29.59,WSW,256,7.0,14.0,93,0.01,,---,0.33,VWS V13.01,2013-02-28 02:54:00,
2013-02-27 21:59:00,33.7,31.9,29.59,West,267,5.0,14.0,93,0.01,,---,0.33,VWS V13.01,2013-02-28 02:59:00,
2013-02-27 22:04:00,33.5,31.7,29.59,West,272,5.0,11.0,93,0.01,,---,0.33,VWS V13.01,2013-02-28 03:04:00,
2013-02-27 22:09:00,33.5,31.7,29.59,WSW,254,5.0,13.0,93,0.01,,---,0.33,VWS V13.01,2013-02-28 03:09:00,
2013-02-27 22:14:00,33.4,31.6,29.59,West,263,7.0,13.0,93,0.01,,---,0.33,VWS V13.01,2013-02-28 03:14:00,
2013-02-27 22:19:00,33.3,31.5,29.59,West,265,8.0,13.0,93,0.01,,---,0.33,VWS V13.01,2013-02-28 03:19:00,
2013-02-27 22:24:00,33.3,31.5,29.59,West,266,5.0,13.0,93,0.01,,---,0.33,VWS V13.01,2013-02-28 03:24:00,
2013-02-27 22:29:00,33.2,31.4,29.59,West,260,8.0,13.0,93,0.01,,---,0.33,VWS V13.01,2013-02-28 03:29:00,
2013-02-27 22:34:00,33.2,31.4,29.59,West,261,5.0,9.0,93,0.00,,---,0.33,VWS V13.01,2013-02-28 03:34:00,
2013-02-27 22:40:00,33.1,31.3,29.59,West,260,9.0,12.0,93,0.00,,---,0.33,VWS V13.01,2013-02-28 03:40:00,
2013-02-27 22:45:00,33.2,31.1,29.59,West,281,5.0,12.0,92,0.00,,---,0.33,VWS V13.01,2013-02-28 03:45:00,
2013-02-27 22:50:00,33.1,31.0,29.59,West,281,2.0,12.0,92,0.00,,---,0.33,VWS V13.01,2013-02-28 03:50:00,
2013-02-27 22:55:00,33.0,31.2,29.59,West,281,5.0,12.0,93,0.00,,---,0.33,VWS V13.01,2013-02-28 03:55:00,
2013-02-27 23:00:00,33.0,30.9,29.59,West,281,0.0,12.0,92,0.00,,---,0.33,VWS V13.01,2013-02-28 04:00:00,
2013-02-27 23:05:00,32.9,31.1,29.58,West,281,0.0,6.0,93,0.00,,---,0.33,VWS V13.01,2013-02-28 04:05:00,
2013-02-27 23:10:00,32.8,31.0,29.58,West,281,0.0,6.0,93,0.00,,---,0.33,VWS V13.01,2013-02-28 04:10:00,
2013-02-27 23:15:00,32.6,30.8,29.58,West,280,0.0,6.0,93,0.00,,---,0.33,VWS V13.01,2013-02-28 04:15:00,
2013-02-27 23:20:00,32.5,30.7,29.58,West,281,0.0,6.0,93,0.00,,---,0.33,VWS V13.01,2013-02-28 04:20:00,
2013-02-27 23:25:00,32.5,31.0,29.58,West,281,6.0,7.0,94,0.00,,---,0.33,VWS V13.01,2013-02-28 04:25:00,
2013-02-27 23:30:00,32.6,30.8,29.58,West,280,0.0,2.0,93,0.00,,---,0.33,VWS V13.01,2013-02-28 04:30:00,
2013-02-27 23:35:00,32.6,30.8,29.58,West,281,0.0,5.0,93,0.00,,---,0.33,VWS V13.01,2013-02-28 04:35:00,
2013-02-27 23:41:00,32.6,30.8,29.58,West,281,0.0,5.0,93,0.00,,---,0.33,VWS V13.01,2013-02-28 04:41:00,
2013-02-27 23:46:00,32.7,30.9,29.58,West,281,0.0,5.0,93,0.00,,---,0.33,VWS V13.01,2013-02-28 04:46:00,
2013-02-27 23:51:00,32.6,30.8,29.58,West,280,0.0,5.0,93,0.00,,---,0.33,VWS V13.01,2013-02-28 04:51:00,
2013-02-27 23:56:00,32.5,30.7,29.58,West,281,0.0,5.0,93,0.00,,---,0.33,VWS V13.01,2013-02-28 04:56:00,